Toledo, Argentina
Current Conditions -  °F | °C
As of 9:00 AM on Friday 26 Dec 2014 (Local Time) from SACO Reporting Station
Thunderstorm Thunderstorm  
Wind Chill: 24°   Ceiling: Unl
Heat Index: 24°   Visibility: 6mi
Dew Point: 20°   Wind: 7mph
Humidity: 78%   Direction: 50°NE
Pressure: 29.97"   Gusts: NA
Location:  31.57°S, 64.02°W
Report Text: SACO 261200Z 05006KT 9999 TS SCT025FEW040CB 24/20 Q1015
Loading
Personal Weather Stations






























Interactive Weather Map New forecast layout! Learn more

10-Day Weather Forecast

Advertisements
Track Severe Weather on mobile